Boras — TCGU — position and weather

sailwx.info

Track history (hours):
 
Tides and Currents Weather Stations Pressure Air Temp Water Temp Dewpoint Dewpoint Depression Visibility Wind Speed Wind Dir Waves Ship Positions

Boras

Last reported at 2017-Mar-07 08:26 UTC. Time now 2017-Apr-30 07:01 UTC.
Position N 40°52' E 029°13'.
Warning: this ship's position is 53 days out of date.

Length 103 m; draft 7.1 m.

Type: Cargo ship. MMSI: 271000352.

Date/timePositionNaut miles runAvg speedWind from/ knotsBaromVisibWave heightAir tempDewpointWater temp
2017-Mar-07 08:26N 40°52' E 029°13'0 0.0
2017-Mar-07 07:16N 40°52' E 029°13'0 0.0
2017-Mar-07 06:28N 40°52' E 029°13'0 0.1
2017-Mar-07 05:15N 40°52' E 029°13'0 0.0
2017-Mar-07 04:30N 40°52' E 029°13'0 0.0
2017-Mar-07 03:29N 40°52' E 029°13'0 0.0
2017-Mar-07 02:32N 40°52' E 029°13'0 0.0
2017-Mar-07 01:28N 40°52' E 029°13'0 0.0
2017-Mar-07 00:26N 40°52' E 029°13'0 0.0
2017-Mar-06 22:33N 40°52' E 029°13'0 0.0
2017-Mar-06 21:14N 40°52' E 029°13'0 0.0
2017-Mar-06 20:33N 40°52' E 029°13'0 0.0
2017-Mar-06 19:31N 40°52' E 029°13'0 0.0
2017-Mar-06 18:32N 40°52' E 029°13'0 0.0
2017-Mar-06 17:28N 40°52' E 029°13'0 0.0
2017-Mar-06 16:30N 40°52' E 029°13'0 0.0
2017-Mar-06 15:30N 40°52' E 029°13'0 0.0
2017-Mar-06 14:24N 40°52' E 029°13'0 0.0
2017-Mar-06 13:33N 40°52' E 029°13'0 0.0
2017-Mar-06 12:25N 40°52' E 029°13'0 0.4
2017-Mar-06 11:33N 40°52' E 029°13'6 6.2
2017-Mar-06 10:33N 40°46' E 029°15'9 8.8
2017-Mar-06 09:33N 40°45' E 029°26'4 0.1
2017-Mar-04 14:30N 40°43' E 029°21'4 4.6
2017-Mar-04 13:33N 40°43' E 029°16'8 7.2
2017-Mar-04 12:30N 40°43' E 029°06'  
Track history (hours):
 
Tides and Currents Weather Stations Pressure Air Temp Water Temp Dewpoint Dewpoint Depression Visibility Wind Speed Wind Dir Waves Ship Positions

Boras

Last reported at 2017-Mar-07 08:26 UTC. Time now 2017-Apr-30 07:01 UTC.
Position N 40°52' E 029°13'.
Warning: this ship's position is 53 days out of date.

Length 103 m; draft 7.1 m.

Type: Cargo ship. MMSI: 271000352.

Date/timePositionNaut miles runAvg speedWind from/ knotsBaromVisibWave heightAir tempDewpointWater temp
2017-Mar-07 08:26N 40°52' E 029°13'0 0.0
2017-Mar-07 07:16N 40°52' E 029°13'0 0.0
2017-Mar-07 06:28N 40°52' E 029°13'0 0.1
2017-Mar-07 05:15N 40°52' E 029°13'0 0.0
2017-Mar-07 04:30N 40°52' E 029°13'0 0.0
2017-Mar-07 03:29N 40°52' E 029°13'0 0.0
2017-Mar-07 02:32N 40°52' E 029°13'0 0.0
2017-Mar-07 01:28N 40°52' E 029°13'0 0.0
2017-Mar-07 00:26N 40°52' E 029°13'0 0.0
2017-Mar-06 22:33N 40°52' E 029°13'0 0.0
2017-Mar-06 21:14N 40°52' E 029°13'0 0.0
2017-Mar-06 20:33N 40°52' E 029°13'0 0.0
2017-Mar-06 19:31N 40°52' E 029°13'0 0.0
2017-Mar-06 18:32N 40°52' E 029°13'0 0.0
2017-Mar-06 17:28N 40°52' E 029°13'0 0.0
2017-Mar-06 16:30N 40°52' E 029°13'0 0.0
2017-Mar-06 15:30N 40°52' E 029°13'0 0.0
2017-Mar-06 14:24N 40°52' E 029°13'0 0.0
2017-Mar-06 13:33N 40°52' E 029°13'0 0.0
2017-Mar-06 12:25N 40°52' E 029°13'0 0.4
2017-Mar-06 11:33N 40°52' E 029°13'6 6.2
2017-Mar-06 10:33N 40°46' E 029°15'9 8.8
2017-Mar-06 09:33N 40°45' E 029°26'4 0.1
2017-Mar-04 14:30N 40°43' E 029°21'4 4.6
2017-Mar-04 13:33N 40°43' E 029°16'8 7.2
2017-Mar-04 12:30N 40°43' E 029°06'  

Dump ship's entire track history